Sidman, Pennsylvania
Current Conditions -  °F | °C
As of 5:54 AM on Thursday 18 Dec 2014 (Local Time) from KJST Reporting Station
Overcast Overcast  
Wind Chill: 11°   Ceiling: 1400
Heat Index: 23°   Visibility: 10mi
Dew Point: 17°   Wind: 13mph
Humidity: 78%   Direction: 290°WNW
Pressure: 30.05"   Gusts: NA
Location:  40.33°N, 78.74°W
Report Text: KJST 181054Z AUTO 29011KT 10SM OVC014 M05/M08 A3005 RMK AO2 SLP204 T10501083
Loading
Personal Weather Stations






























Interactive Weather Map New forecast layout! Learn more

10-Day Weather Forecast

Advertisements
Track Severe Weather on mobile